createdAt,value
2018-08-03T00:02:14.923Z,12.33
2018-08-03T00:04:42.912Z,13.60
2018-08-03T00:07:10.946Z,12.93
2018-08-03T00:09:38.926Z,13.17
2018-08-03T00:12:06.970Z,14.65
2018-08-03T00:14:35.003Z,13.90
2018-08-03T00:17:03.035Z,13.80
2018-08-03T00:19:31.354Z,13.43
2018-08-03T00:22:00.157Z,14.30
2018-08-03T00:24:29.013Z,13.97
2018-08-03T00:26:57.493Z,15.80
2018-08-03T00:29:25.603Z,13.77
2018-08-03T00:31:53.603Z,14.80
2018-08-03T00:34:21.593Z,13.30
2018-08-03T00:36:49.594Z,14.20
2018-08-03T00:39:17.557Z,13.60
2018-08-03T00:41:45.556Z,13.40
2018-08-03T00:44:13.549Z,14.47
2018-08-03T00:46:41.578Z,14.20
2018-08-03T00:49:09.558Z,15.53
2018-08-03T00:51:37.537Z,14.73
2018-08-03T00:54:05.556Z,13.60
2018-08-03T00:56:33.590Z,14.20
2018-08-03T00:59:01.998Z,14.57
2018-08-03T01:01:30.951Z,14.97
2018-08-03T01:03:59.599Z,14.33
2018-08-03T01:06:27.668Z,14.57
2018-08-03T01:08:55.768Z,15.67
2018-08-03T01:11:24.112Z,15.70
2018-08-03T01:13:52.162Z,15.87
2018-08-03T01:16:20.140Z,14.73
2018-08-03T01:18:48.091Z,16.17
2018-08-03T01:21:16.043Z,15.47
2018-08-03T01:23:44.026Z,16.50
2018-08-03T01:26:11.991Z,17.03
2018-08-03T01:28:39.970Z,15.03
2018-08-03T01:31:08.778Z,15.53
2018-08-03T01:33:36.747Z,16.30
2018-08-03T01:36:04.691Z,15.20
2018-08-03T01:38:33.154Z,16.23
2018-08-03T01:41:02.246Z,13.77
2018-08-03T01:43:30.961Z,15.80
2018-08-03T01:45:58.982Z,15.10
2018-08-03T01:48:27.149Z,16.27
2018-08-03T01:50:55.105Z,16.27
2018-08-03T01:53:23.104Z,16.50
2018-08-03T01:55:51.170Z,14.17
2018-08-03T01:58:19.128Z,14.40
2018-08-03T02:00:47.076Z,14.10
2018-08-03T02:03:15.085Z,13.87
2018-08-03T02:05:43.087Z,15.33
2018-08-03T02:08:11.532Z,15.97
2018-08-03T02:10:39.483Z,14.00
2018-08-03T02:13:07.447Z,15.57
2018-08-03T02:15:35.387Z,16.50
2018-08-03T02:18:03.360Z,16.80
2018-08-03T02:20:31.330Z,15.23
2018-08-03T02:22:59.302Z,15.63
2018-08-03T02:25:27.235Z,14.77
2018-08-03T02:27:55.251Z,15.70
2018-08-03T02:30:23.233Z,15.67
2018-08-03T02:32:51.300Z,15.50
2018-08-03T02:35:19.283Z,17.13
2018-08-03T02:37:47.284Z,16.40
2018-08-03T02:40:15.250Z,14.97
2018-08-03T02:42:43.237Z,16.17
2018-08-03T02:45:11.240Z,16.03
2018-08-03T02:47:39.233Z,16.03
2018-08-03T02:50:07.266Z,13.50
2018-08-03T02:52:35.241Z,14.70
2018-08-03T02:55:03.908Z,17.20
2018-08-03T02:57:31.864Z,16.97
2018-08-03T02:59:59.862Z,15.70
2018-08-03T03:02:27.802Z,16.20
2018-08-03T03:04:55.822Z,14.60
2018-08-03T03:07:23.845Z,16.07
2018-08-03T03:09:51.850Z,15.80
2018-08-03T03:12:19.801Z,15.37
2018-08-03T03:14:47.826Z,15.33
2018-08-03T03:17:15.782Z,14.33
2018-08-03T03:19:43.829Z,14.50
2018-08-03T03:22:11.836Z,14.17
2018-08-03T03:24:39.831Z,15.03
2018-08-03T03:27:07.796Z,14.63
2018-08-03T03:29:35.799Z,15.27
2018-08-03T03:32:03.767Z,13.97
2018-08-03T03:34:31.778Z,15.73
2018-08-03T03:36:59.750Z,14.30
2018-08-03T03:39:27.758Z,15.73
2018-08-03T03:41:55.712Z,14.83
2018-08-03T03:44:23.726Z,15.73
2018-08-03T03:46:51.726Z,15.57
2018-08-03T03:49:19.841Z,14.70
2018-08-03T03:51:47.835Z,15.40
2018-08-03T03:54:15.831Z,15.87
2018-08-03T03:56:43.789Z,15.20
2018-08-03T03:59:11.810Z,16.30
2018-08-03T04:01:39.800Z,16.63
2018-08-03T04:04:07.809Z,14.27
2018-08-03T04:06:35.777Z,16.33
2018-08-03T04:09:06.331Z,16.97
2018-08-03T04:11:34.289Z,15.90
2018-08-03T04:14:02.279Z,15.07
2018-08-03T04:16:30.266Z,15.17
2018-08-03T04:18:58.323Z,16.00
2018-08-03T04:21:26.278Z,15.40
2018-08-03T04:23:54.304Z,15.80
2018-08-03T04:26:22.254Z,16.00
2018-08-03T04:28:50.345Z,14.77
2018-08-03T04:31:18.331Z,16.10
2018-08-03T04:33:46.314Z,18.50
2018-08-03T04:36:14.373Z,16.07
2018-08-03T04:38:42.350Z,17.03
2018-08-03T04:41:10.334Z,16.00
2018-08-03T04:43:38.383Z,15.33
2018-08-03T04:46:06.490Z,12.60
2018-08-03T04:48:34.498Z,15.67
2018-08-03T04:51:02.536Z,16.20
2018-08-03T04:53:30.502Z,14.50
2018-08-03T04:55:58.478Z,15.10
2018-08-03T04:58:26.456Z,15.53
2018-08-03T05:00:54.495Z,15.37
2018-08-03T05:03:22.503Z,16.10
2018-08-03T05:05:50.485Z,15.93
2018-08-03T05:08:18.472Z,15.97
2018-08-03T05:10:46.491Z,16.47
2018-08-03T05:13:14.625Z,15.10
2018-08-03T05:15:42.665Z,15.57
2018-08-03T05:18:10.637Z,15.70
2018-08-03T05:20:38.674Z,14.63
2018-08-03T05:23:06.671Z,15.83
2018-08-03T05:25:34.694Z,15.90
2018-08-03T05:28:02.667Z,14.57
2018-08-03T05:30:30.686Z,15.03
2018-08-03T05:32:58.685Z,33.10
2018-08-03T05:35:26.781Z,19.50
2018-08-03T05:37:54.736Z,14.20
2018-08-03T05:40:22.747Z,13.47
2018-08-03T05:42:50.710Z,14.23
2018-08-03T05:45:18.743Z,20.97
2018-08-03T05:47:46.761Z,20.30
2018-08-03T05:50:14.897Z,15.00
2018-08-03T05:52:42.827Z,13.50
2018-08-03T05:55:10.890Z,15.80
2018-08-03T05:57:38.867Z,16.57
2018-08-03T06:00:07.051Z,20.80
2018-08-03T06:02:35.107Z,13.70
2018-08-03T06:05:04.321Z,11.40
2018-08-03T06:07:32.332Z,11.30
2018-08-03T06:10:00.304Z,15.50
2018-08-03T06:12:28.291Z,13.97
2018-08-03T06:14:56.367Z,13.87
2018-08-03T06:17:24.361Z,12.87
2018-08-03T06:19:52.352Z,12.57
2018-08-03T06:22:20.382Z,14.43
2018-08-03T06:24:48.366Z,11.60
2018-08-03T06:27:16.429Z,10.50
2018-08-03T06:29:44.478Z,10.30
2018-08-03T06:32:12.508Z,13.83
2018-08-03T06:34:40.486Z,11.37
2018-08-03T06:37:08.626Z,11.37
2018-08-03T06:39:36.606Z,12.00
2018-08-03T06:42:04.647Z,11.83
2018-08-03T06:44:32.636Z,10.10
2018-08-03T06:47:00.705Z,9.97
2018-08-03T06:49:28.747Z,15.07
2018-08-03T06:51:56.742Z,11.97
2018-08-03T06:54:24.768Z,11.90
2018-08-03T06:56:52.746Z,9.00
2018-08-03T06:59:20.759Z,12.53
2018-08-03T07:01:48.877Z,9.70
2018-08-03T07:04:16.896Z,10.00
2018-08-03T07:06:44.927Z,9.50
2018-08-03T07:09:13.197Z,9.37
2018-08-03T07:11:41.205Z,9.33
2018-08-03T07:14:09.269Z,11.27
2018-08-03T07:16:37.298Z,8.83
2018-08-03T07:19:05.302Z,8.80
2018-08-03T07:21:33.277Z,14.97
2018-08-03T07:24:01.309Z,9.40
2018-08-03T07:26:29.332Z,10.00
2018-08-03T07:28:57.325Z,8.70
2018-08-03T07:31:25.333Z,9.07
2018-08-03T07:33:53.339Z,9.23
2018-08-03T07:36:21.403Z,10.83
2018-08-03T07:38:49.560Z,9.50
2018-08-03T07:41:17.534Z,8.07
2018-08-03T07:43:45.521Z,11.17
2018-08-03T07:46:13.565Z,11.97
2018-08-03T07:48:41.556Z,9.00
2018-08-03T07:51:09.557Z,8.87
2018-08-03T07:53:37.562Z,9.57
2018-08-03T07:56:05.546Z,8.87
2018-08-03T07:58:33.530Z,11.03
2018-08-03T08:01:01.743Z,8.83
2018-08-03T08:03:29.947Z,12.43
2018-08-03T08:05:58.036Z,9.40
2018-08-03T08:08:26.250Z,8.00
2018-08-03T08:10:54.230Z,8.50
2018-08-03T08:13:22.299Z,11.73
2018-08-03T08:15:50.281Z,7.50
2018-08-03T08:18:18.314Z,10.57
2018-08-03T08:20:46.317Z,9.67
2018-08-03T08:23:14.324Z,8.67
2018-08-03T08:25:42.310Z,8.53
2018-08-03T08:28:10.339Z,9.07
2018-08-03T08:30:38.523Z,8.90
2018-08-03T08:33:06.539Z,11.03
2018-08-03T08:35:34.588Z,10.37
2018-08-03T08:38:02.650Z,10.30
2018-08-03T08:40:30.602Z,9.90
2018-08-03T08:42:58.622Z,13.70
2018-08-03T08:45:26.619Z,12.53
2018-08-03T08:47:54.771Z,9.33
2018-08-03T08:50:22.829Z,8.37
2018-08-03T08:52:50.861Z,7.97
2018-08-03T08:55:18.826Z,9.93
2018-08-03T08:57:46.958Z,12.17
2018-08-03T09:00:14.997Z,8.23
2018-08-03T09:02:43.025Z,8.90
2018-08-03T09:05:11.111Z,12.20
2018-08-03T09:07:40.179Z,9.40
2018-08-03T09:10:08.967Z,9.73
2018-08-03T09:12:37.567Z,8.70
2018-08-03T09:15:05.774Z,8.10
2018-08-03T09:17:33.883Z,9.60
2018-08-03T09:20:01.856Z,9.87
2018-08-03T09:22:29.827Z,8.03
2018-08-03T09:24:57.807Z,9.87
2018-08-03T09:27:25.785Z,14.93
2018-08-03T09:29:53.800Z,9.33
2018-08-03T09:32:21.854Z,9.10
2018-08-03T09:34:49.862Z,9.03
2018-08-03T09:37:17.823Z,8.50
2018-08-03T09:39:45.879Z,7.63
2018-08-03T09:42:13.856Z,9.10
2018-08-03T09:44:42.035Z,8.60
2018-08-03T09:47:10.930Z,8.80
2018-08-03T09:49:40.051Z,8.47
2018-08-03T09:52:08.742Z,8.33
2018-08-03T09:54:36.990Z,8.80
2018-08-03T09:57:05.063Z,8.40
2018-08-03T09:59:33.071Z,8.97
2018-08-03T10:02:01.021Z,8.80
2018-08-03T10:04:29.006Z,8.80
2018-08-03T10:06:56.985Z,8.30
2018-08-03T10:09:24.984Z,8.13
2018-08-03T10:11:52.974Z,8.60
2018-08-03T10:14:20.962Z,9.27
2018-08-03T10:16:48.906Z,7.70
2018-08-03T10:19:16.883Z,7.80
2018-08-03T10:21:44.826Z,9.63
2018-08-03T10:24:12.986Z,8.73
2018-08-03T10:26:41.631Z,7.67
2018-08-03T10:29:10.536Z,7.40
2018-08-03T10:31:39.161Z,8.07
2018-08-03T10:34:07.174Z,8.00
2018-08-03T10:36:35.286Z,8.47
2018-08-03T10:39:03.562Z,10.20
2018-08-03T10:41:31.534Z,8.60
2018-08-03T10:43:59.535Z,7.00
2018-08-03T10:46:27.520Z,7.33
2018-08-03T10:48:55.499Z,7.27
2018-08-03T10:51:23.455Z,7.30
2018-08-03T10:53:51.463Z,7.20
2018-08-03T10:56:19.455Z,8.07
2018-08-03T10:58:47.519Z,7.40
2018-08-03T11:01:15.542Z,7.27
2018-08-03T11:03:43.574Z,7.13
2018-08-03T11:06:12.230Z,9.70
2018-08-03T11:08:41.892Z,7.00
2018-08-03T11:11:10.966Z,6.57
2018-08-03T11:13:39.517Z,10.30
2018-08-03T11:16:07.624Z,8.13
2018-08-03T11:18:35.699Z,7.23
2018-08-03T11:21:03.712Z,10.73
2018-08-03T11:23:31.675Z,8.87
2018-08-03T11:25:59.669Z,7.20
2018-08-03T11:28:27.614Z,8.50
2018-08-03T11:30:55.612Z,6.37
2018-08-03T11:33:23.602Z,6.37
2018-08-03T11:35:51.581Z,6.60
2018-08-03T11:38:19.557Z,7.07
2018-08-03T11:40:47.560Z,8.90
2018-08-03T11:43:15.526Z,8.90
2018-08-03T11:45:43.720Z,6.90
2018-08-03T11:48:12.727Z,7.13
2018-08-03T11:50:41.701Z,6.80
2018-08-03T11:53:10.313Z,7.17
2018-08-03T11:55:38.358Z,6.73
2018-08-03T11:58:06.414Z,7.10
2018-08-03T12:00:34.419Z,6.60
2018-08-03T12:03:02.367Z,9.20
2018-08-03T12:05:30.367Z,6.53
2018-08-03T12:07:58.326Z,6.47
2018-08-03T12:10:26.407Z,7.03
2018-08-03T12:12:54.366Z,9.60
2018-08-03T12:15:22.366Z,8.70
2018-08-03T12:17:50.344Z,6.90
2018-08-03T12:20:18.321Z,7.37
2018-08-03T12:22:46.280Z,7.07
2018-08-03T12:25:14.417Z,6.87
2018-08-03T12:27:43.305Z,7.30
2018-08-03T12:30:12.855Z,6.33
2018-08-03T12:32:41.571Z,6.33
2018-08-03T12:35:09.580Z,6.60
2018-08-03T12:37:37.694Z,7.53
2018-08-03T12:40:05.689Z,6.83
2018-08-03T12:42:33.666Z,6.40
2018-08-03T12:45:01.685Z,5.70
2018-08-03T12:47:29.659Z,6.10
2018-08-03T12:49:57.674Z,5.73
2018-08-03T12:52:25.710Z,7.00
2018-08-03T12:54:53.678Z,27.83
2018-08-03T12:57:21.672Z,6.77
2018-08-03T12:59:49.683Z,6.30
2018-08-03T13:02:17.616Z,5.67
2018-08-03T13:04:45.576Z,6.87
2018-08-03T13:07:14.302Z,6.00
2018-08-03T13:09:43.322Z,7.13
2018-08-03T13:12:12.009Z,9.33
2018-08-03T13:14:40.094Z,7.37
2018-08-03T13:17:08.330Z,8.23
2018-08-03T13:19:36.286Z,5.57
2018-08-03T13:22:04.308Z,6.10
2018-08-03T13:24:32.260Z,6.97
2018-08-03T13:27:00.233Z,5.53
2018-08-03T13:29:28.250Z,6.57
2018-08-03T13:31:56.221Z,5.60
2018-08-03T13:34:24.171Z,9.27
2018-08-03T13:36:52.144Z,6.50
2018-08-03T13:39:20.110Z,7.83
2018-08-03T13:41:48.127Z,6.00
2018-08-03T13:44:16.223Z,6.20
2018-08-03T13:46:44.882Z,5.40
2018-08-03T13:49:13.908Z,5.90
2018-08-03T13:51:42.491Z,7.42
2018-08-03T13:54:10.646Z,7.80
2018-08-03T13:56:38.740Z,6.90
2018-08-03T13:59:06.709Z,8.83
2018-08-03T14:01:37.044Z,8.13
2018-08-03T14:04:05.097Z,8.30
2018-08-03T14:06:33.055Z,9.30
2018-08-03T14:09:01.005Z,8.30
2018-08-03T14:11:29.009Z,6.70
2018-08-03T14:13:56.971Z,5.77
2018-08-03T14:16:24.943Z,9.03
2018-08-03T14:18:52.893Z,5.77
2018-08-03T14:21:20.859Z,5.73
2018-08-03T14:23:48.869Z,6.03
2018-08-03T14:26:17.025Z,5.43
2018-08-03T14:28:45.662Z,5.40
2018-08-03T14:31:14.619Z,5.50
2018-08-03T14:33:43.302Z,4.70
2018-08-03T14:36:11.426Z,7.37
2018-08-03T14:38:39.515Z,6.57
2018-08-03T14:41:07.525Z,7.57
2018-08-03T14:43:35.515Z,5.80
2018-08-03T14:46:03.549Z,5.23
2018-08-03T14:48:31.540Z,11.70
2018-08-03T14:50:59.530Z,7.00
2018-08-03T14:53:27.515Z,5.93
2018-08-03T14:55:55.477Z,6.43
2018-08-03T14:58:23.495Z,6.13
2018-08-03T15:00:51.485Z,8.53
2018-08-03T15:03:19.471Z,6.13
2018-08-03T15:05:47.641Z,8.47
2018-08-03T15:08:16.366Z,8.40
2018-08-03T15:10:45.305Z,6.63
2018-08-03T15:13:13.882Z,5.57
2018-08-03T15:15:42.265Z,5.13
2018-08-03T15:18:10.381Z,5.53
2018-08-03T15:20:38.330Z,5.70
2018-08-03T15:23:06.376Z,5.07
2018-08-03T15:25:34.342Z,5.50
2018-08-03T15:28:02.329Z,6.90
2018-08-03T15:30:30.274Z,7.40
2018-08-03T15:32:58.287Z,4.60
2018-08-03T15:35:26.258Z,5.47
2018-08-03T15:37:54.266Z,7.43
2018-08-03T15:40:22.254Z,5.20
2018-08-03T15:42:50.339Z,5.47
2018-08-03T15:45:18.390Z,4.63
2018-08-03T15:47:46.994Z,4.40
2018-08-03T15:50:15.990Z,6.37
2018-08-03T15:52:44.724Z,5.90
2018-08-03T15:55:12.827Z,6.73
2018-08-03T15:57:40.966Z,5.63
2018-08-03T16:00:09.422Z,5.10
2018-08-03T16:02:37.399Z,5.90
2018-08-03T16:05:05.623Z,6.07
2018-08-03T16:07:33.579Z,14.43
2018-08-03T16:10:01.567Z,6.80
2018-08-03T16:12:29.541Z,4.90
2018-08-03T16:14:57.711Z,5.67
2018-08-03T16:17:25.779Z,4.90
2018-08-03T16:19:53.778Z,5.60
2018-08-03T16:22:21.733Z,5.03
2018-08-03T16:24:49.732Z,7.60
2018-08-03T16:27:18.122Z,5.10
2018-08-03T16:29:47.571Z,4.23
2018-08-03T16:32:16.592Z,6.67
2018-08-03T16:34:45.289Z,6.30
2018-08-03T16:37:13.539Z,5.57
2018-08-03T16:39:41.826Z,5.03
2018-08-03T16:42:09.815Z,5.17
2018-08-03T16:44:38.007Z,5.00
2018-08-03T16:47:06.162Z,5.40
2018-08-03T16:49:34.162Z,4.80
2018-08-03T16:52:02.219Z,4.83
2018-08-03T16:54:30.379Z,4.90
2018-08-03T16:56:58.375Z,5.33
2018-08-03T16:59:26.357Z,5.43
2018-08-03T17:01:54.300Z,4.87
2018-08-03T17:04:22.305Z,5.90
2018-08-03T17:06:50.281Z,4.93
2018-08-03T17:09:18.725Z,4.50
2018-08-03T17:11:47.817Z,5.30
2018-08-03T17:14:16.687Z,5.30
2018-08-03T17:16:44.961Z,4.33
2018-08-03T17:19:13.394Z,7.20
2018-08-03T17:21:41.358Z,6.23
2018-08-03T17:24:09.369Z,7.03
2018-08-03T17:26:37.329Z,5.57
2018-08-03T17:29:05.309Z,6.97
2018-08-03T17:31:33.254Z,6.80
2018-08-03T17:34:01.237Z,7.37
2018-08-03T17:36:29.309Z,6.80
2018-08-03T17:38:57.306Z,6.93
2018-08-03T17:41:25.279Z,5.60
2018-08-03T17:43:53.250Z,6.70
2018-08-03T17:46:21.265Z,5.43
2018-08-03T17:48:49.531Z,6.97
2018-08-03T17:51:18.715Z,7.17
2018-08-03T17:53:47.673Z,4.47
2018-08-03T17:56:16.157Z,6.20
2018-08-03T17:58:44.283Z,5.80
2018-08-03T18:01:12.285Z,7.37
2018-08-03T18:03:40.264Z,5.47
2018-08-03T18:06:08.268Z,7.50
2018-08-03T18:08:36.243Z,6.00
2018-08-03T18:11:04.295Z,6.33
2018-08-03T18:13:32.284Z,5.63
2018-08-03T18:16:00.299Z,6.27
2018-08-03T18:18:28.288Z,6.53
2018-08-03T18:20:56.267Z,7.23
2018-08-03T18:23:24.241Z,6.00
2018-08-03T18:25:52.232Z,5.43
2018-08-03T18:28:20.570Z,5.50
2018-08-03T18:30:49.399Z,5.53
2018-08-03T18:33:18.364Z,4.23
2018-08-03T18:35:46.855Z,6.83
2018-08-03T18:38:14.826Z,5.57
2018-08-03T18:40:42.819Z,4.90
2018-08-03T18:43:10.791Z,5.63
2018-08-03T18:45:38.785Z,5.13
2018-08-03T18:48:06.770Z,8.30
2018-08-03T18:50:34.802Z,12.57
2018-08-03T18:53:02.779Z,6.30
2018-08-03T18:55:30.835Z,5.47
2018-08-03T18:57:58.791Z,4.40
2018-08-03T19:00:26.872Z,5.10
2018-08-03T19:02:54.818Z,3.63
2018-08-03T19:05:22.835Z,5.90
2018-08-03T19:07:50.965Z,4.27
2018-08-03T19:10:19.899Z,4.10
2018-08-03T19:12:48.542Z,5.57
2018-08-03T19:15:16.614Z,4.60
2018-08-03T19:17:44.725Z,5.63
2018-08-03T19:20:12.671Z,5.20
2018-08-03T19:22:40.671Z,6.53
2018-08-03T19:25:08.855Z,20.10
2018-08-03T19:27:36.873Z,19.50
2018-08-03T19:30:04.892Z,26.50
2018-08-03T19:32:32.891Z,7.00
2018-08-03T19:35:00.853Z,5.80
2018-08-03T19:37:28.829Z,5.33
2018-08-03T19:39:56.793Z,6.93
2018-08-03T19:42:24.762Z,6.63
2018-08-03T19:44:52.772Z,5.53
2018-08-03T19:47:21.369Z,6.57
2018-08-03T19:49:49.943Z,7.00
2018-08-03T19:52:18.510Z,6.83
2018-08-03T19:54:46.645Z,7.43
2018-08-03T19:57:14.732Z,6.50
2018-08-03T19:59:42.703Z,6.67
2018-08-03T20:02:10.707Z,6.40
2018-08-03T20:04:38.670Z,7.17
2018-08-03T20:07:06.675Z,7.10
2018-08-03T20:09:34.649Z,6.97
2018-08-03T20:12:02.651Z,6.90
2018-08-03T20:14:30.621Z,7.30
2018-08-03T20:16:58.619Z,7.00
2018-08-03T20:19:26.587Z,7.40
2018-08-03T20:21:54.575Z,8.00
2018-08-03T20:24:22.845Z,7.87
2018-08-03T20:26:51.805Z,7.70
2018-08-03T20:29:20.821Z,8.50
2018-08-03T20:31:49.506Z,9.10
2018-08-03T20:34:17.631Z,8.53
2018-08-03T20:36:45.759Z,9.03
2018-08-03T20:39:13.804Z,9.60
2018-08-03T20:41:41.736Z,10.20
2018-08-03T20:44:09.730Z,8.87
2018-08-03T20:46:37.729Z,9.30
2018-08-03T20:49:05.781Z,9.07
2018-08-03T20:51:33.774Z,9.20
2018-08-03T20:54:01.759Z,9.07
2018-08-03T20:56:29.785Z,10.00
2018-08-03T20:58:57.782Z,8.60
2018-08-03T21:01:25.788Z,9.67
2018-08-03T21:03:53.941Z,10.07
2018-08-03T21:06:21.946Z,7.60
2018-08-03T21:08:50.678Z,9.17
2018-08-03T21:11:18.766Z,10.30
2018-08-03T21:13:46.912Z,10.13
2018-08-03T21:16:14.875Z,9.30
2018-08-03T21:18:42.878Z,10.00
2018-08-03T21:21:10.853Z,10.10
2018-08-03T21:23:38.835Z,9.60
2018-08-03T21:26:06.814Z,8.93
2018-08-03T21:28:34.822Z,9.90
2018-08-03T21:31:02.826Z,9.70
2018-08-03T21:33:30.822Z,9.30
2018-08-03T21:35:58.786Z,10.27
2018-08-03T21:38:26.783Z,10.20
2018-08-03T21:40:54.795Z,10.30
2018-08-03T21:43:23.394Z,9.73
2018-08-03T21:45:52.383Z,8.83
2018-08-03T21:48:21.070Z,10.20
2018-08-03T21:50:49.245Z,8.80
2018-08-03T21:53:17.389Z,8.70
2018-08-03T21:55:45.361Z,12.63
2018-08-03T21:58:13.344Z,9.27
2018-08-03T22:00:41.325Z,9.77
2018-08-03T22:03:09.366Z,9.73
2018-08-03T22:05:37.393Z,10.13
2018-08-03T22:08:05.443Z,9.00
2018-08-03T22:10:33.420Z,9.43
2018-08-03T22:13:01.412Z,9.30
2018-08-03T22:15:29.407Z,10.47
2018-08-03T22:17:57.402Z,9.53
2018-08-03T22:20:25.531Z,9.47
2018-08-03T22:22:54.162Z,9.67
2018-08-03T22:25:23.075Z,10.93
2018-08-03T22:27:51.761Z,10.73
2018-08-03T22:30:19.928Z,10.77
2018-08-03T22:32:48.112Z,10.13
2018-08-03T22:35:16.089Z,10.37
2018-08-03T22:37:44.109Z,8.87
2018-08-03T22:40:12.111Z,10.20
2018-08-03T22:42:40.106Z,9.60
2018-08-03T22:45:08.130Z,9.70
2018-08-03T22:47:36.110Z,10.20
2018-08-03T22:50:04.160Z,9.90
2018-08-03T22:52:32.132Z,9.00
2018-08-03T22:55:00.121Z,8.67
2018-08-03T22:57:28.075Z,7.90
2018-08-03T22:59:56.203Z,9.10
2018-08-03T23:02:24.870Z,9.73
2018-08-03T23:04:53.962Z,9.70
2018-08-03T23:07:22.651Z,10.23
2018-08-03T23:09:50.826Z,10.23
2018-08-03T23:12:18.938Z,8.97
2018-08-03T23:14:46.953Z,10.30
2018-08-03T23:17:14.917Z,10.07
2018-08-03T23:19:42.917Z,9.67
2018-08-03T23:22:10.892Z,9.13
2018-08-03T23:24:38.897Z,9.70
2018-08-03T23:27:06.883Z,11.10
2018-08-03T23:29:34.883Z,10.50
2018-08-03T23:32:02.846Z,11.67
2018-08-03T23:34:30.842Z,10.30
2018-08-03T23:36:58.795Z,10.93
2018-08-03T23:39:26.890Z,9.77
2018-08-03T23:41:55.663Z,8.83
2018-08-03T23:44:24.812Z,10.07
2018-08-03T23:46:53.544Z,9.43
2018-08-03T23:49:21.616Z,9.67
2018-08-03T23:51:49.733Z,9.80
2018-08-03T23:54:17.737Z,10.73
2018-08-03T23:56:45.743Z,10.33
2018-08-03T23:59:13.735Z,9.70
